Ana Sayfa
METAR-TAF:

METAR-TAF

Havaalanları :

Havana, Küba

Enlem: 22-59N, Boylam: 082-24W, yükseklik: 59 m

Güncel hava durumu gözlemi

Rapor saat 15:55 UTC de 21 dakika önce yapıldı.
Rüzgar değişken yönden 3 kt
Sıcaklık 29°C
Nem 55%
Basınç 1014 hPa
Görüş mesafesi: 9000 m
3000 ft yükseklikte az bulutlu

METAR: MUHA 041555Z VRB03KT 9000 FEW030 29/19 Q1014

Saat: 12:16 (16:16 UTC)

Tahmin

Rapor saat 11:00 UTC de 5 saat ve 16 dakika önce yapıldı.
Ayın 04'si saat 12 UTC'den ayın 05'si saat 12 UTC'ye kadar geçerli Tahmin
Rüzgar doğudan 9 kt
Görüş mesafesi: 9000 m
3000 ft yükseklikte az bulutlu

TAF: MUHA 041100Z 0412/0512 08009KT 9000 FEW030

4.000'den fazla havaalanı için hava durumu gözlemleri ve tahminleri (METAR ve TAF raporları).

Kullanılabilir istasyonlar harita üzerinde sarı ve kırmızı noktalarla gösterilir.

İstasyonun adını görmek için fareyi noktanın üzerinde gezdirin.

Sonrasında hava gözlem ve tahminlerini görmek için tıklayın.

Haritayı değiştirmek için: yaklaştırmak için siyah artı işaretli yeşil düğmeye ve uzaklaştırmak için de eksi işaretli düğmeye hızla tıklayın; bitişik haritalar için yeşil okları kullanın.


METAR-TAF: